»·PEaware :: WAT234 KLAS-KSLC

WAT234 :: KLAS-KSLC

FLIGHT INFORMATION

Flight Status: Arrived
Operator:
Walker Air Transport
More flights by this operator :: More flights under this callsign
Pilot: Eduardo Elias G. (24838)
Aircraft: BOEING 747-400 (WINGLETS)
(B744)
More flights by this aircraft type
Origin: KLAS McCarran Intl
United States
Destination: KSLC Salt Lake City Intl
United States
More flights between these airports :: More routes between these airports
Route: TRALR9 MLF MLF QWENN5
File this flight plan on PilotEdge
Remarks:
Altitude:
(Current/Filed)
37,000ft
Speed:
(Current/Filed)
472kts
Departed: 07-Sep-20 03:23 PM
Arrived: 07-Sep-20 04:21 PM
Distance/Time
Traveled:
319nm/0:58
Distance/Time
To Go:
Arrived

Flight Plot

Page will automatically refresh every two minutes.

Flight plan parsing failed; only flown route is shown


Map Options




Map Legend


Flown Route
Filed Route
Departure Airport
Arrival Airport
Navaid (VOR, NDB)
Fix

Horizontal Profiles

Position Reports

Time Latitude Longitude Heading Altitude Ground
Speed
07-Sep-20 14:25 36.080388 -115.134741 272 2194ft 0kts
07-Sep-20 14:26 36.080388 -115.134741 272 2194ft 0kts
07-Sep-20 14:27 36.080388 -115.134741 272 2194ft 0kts
07-Sep-20 14:28 36.080388 -115.134741 272 2194ft 0kts
07-Sep-20 14:29 36.080388 -115.134741 272 2194ft 0kts
07-Sep-20 14:30 36.080388 -115.134741 272 2194ft 0kts
07-Sep-20 14:31 36.080388 -115.134741 272 2194ft 0kts
07-Sep-20 14:32 36.080388 -115.134741 272 2194ft 0kts
07-Sep-20 14:33 36.080388 -115.134741 272 2194ft 0kts
07-Sep-20 14:34 36.080388 -115.134741 272 2194ft 0kts
07-Sep-20 14:35 36.080388 -115.134741 272 2194ft 0kts
07-Sep-20 14:36 36.080388 -115.134741 272 2194ft 0kts
07-Sep-20 14:37 36.080388 -115.134741 272 2194ft 0kts
07-Sep-20 14:38 36.080388 -115.134741 272 2194ft 0kts
07-Sep-20 14:39 36.080388 -115.134741 272 2194ft 0kts
07-Sep-20 14:40 36.080388 -115.134741 272 2194ft 0kts
07-Sep-20 14:41 36.080388 -115.134741 272 2194ft 0kts
07-Sep-20 14:42 36.080388 -115.134741 272 2194ft 0kts
07-Sep-20 14:43 36.080388 -115.134741 272 2194ft 0kts
07-Sep-20 14:44 36.080388 -115.134741 272 2194ft 0kts
07-Sep-20 14:46 36.080388 -115.134741 272 2194ft 0kts
07-Sep-20 14:47 36.080388 -115.134741 272 2194ft 0kts
07-Sep-20 14:48 36.080388 -115.134741 272 2194ft 0kts
07-Sep-20 14:49 36.080388 -115.134741 272 2194ft 0kts
07-Sep-20 14:50 36.080388 -115.134741 272 2194ft 0kts
07-Sep-20 14:51 36.080388 -115.134741 272 2194ft 0kts
07-Sep-20 14:52 36.080388 -115.134741 272 2194ft 0kts
07-Sep-20 14:53 36.080388 -115.134741 272 2194ft 0kts
07-Sep-20 14:54 36.080388 -115.134741 272 2194ft 0kts
07-Sep-20 14:55 36.080388 -115.134741 272 2194ft 0kts
07-Sep-20 14:56 36.080388 -115.134741 272 2194ft 0kts
07-Sep-20 14:57 36.080388 -115.134741 272 2194ft 0kts
07-Sep-20 14:58 36.080388 -115.134741 272 2194ft 0kts
07-Sep-20 14:58 36.080388 -115.134741 272 2194ft 0kts
07-Sep-20 15:00 36.080388 -115.134741 272 2194ft 0kts
07-Sep-20 15:01 36.080388 -115.134741 272 2194ft 0kts
07-Sep-20 15:02 36.080388 -115.134741 272 2194ft 0kts
07-Sep-20 15:03 36.080388 -115.134741 272 2194ft 0kts
07-Sep-20 15:03 36.080409 -115.134411 246 2194ft 2kts
07-Sep-20 15:04 36.080993 -115.133824 195 2194ft 2kts
07-Sep-20 15:06 36.081365 -115.133744 180 2194ft 0kts
07-Sep-20 15:07 36.081365 -115.133744 180 2194ft 0kts
07-Sep-20 15:07 36.081365 -115.133744 180 2194ft 0kts
07-Sep-20 15:08 36.081365 -115.133744 180 2194ft 0kts
07-Sep-20 15:09 36.081365 -115.133744 180 2194ft 0kts
07-Sep-20 15:10 36.081365 -115.133744 180 2194ft 0kts
07-Sep-20 15:11 36.081365 -115.133744 180 2194ft 0kts
07-Sep-20 15:12 36.081365 -115.133744 180 2194ft 0kts
07-Sep-20 15:13 36.081364 -115.133744 180 2194ft 0kts
07-Sep-20 15:14 36.078109 -115.133001 143 2194ft 10kts
07-Sep-20 15:15 36.077561 -115.129879 89 2194ft 9kts
07-Sep-20 15:16 36.077568 -115.126953 89 2194ft 7kts
07-Sep-20 15:17 36.077574 -115.124513 89 2194ft 6kts
07-Sep-20 15:18 36.077579 -115.122364 89 2194ft 5kts
07-Sep-20 15:19 36.077580 -115.122124 90 2194ft 0kts
07-Sep-20 15:20 36.077580 -115.122123 90 2194ft 0kts
07-Sep-20 15:21 36.076998 -115.121241 168 2194ft 6kts
07-Sep-20 15:22 36.076422 -115.132408 270 2194ft 149kts
07-Sep-20 15:23 36.074341 -115.199166 271 5324ft 228kts
07-Sep-20 15:24 36.039803 -115.273746 201 6705ft 292kts
07-Sep-20 15:25 35.961567 -115.295867 174 7114ft 287kts
07-Sep-20 15:26 35.884132 -115.265231 142 10373ft 305kts
07-Sep-20 15:27 35.865069 -115.154396 83 11906ft 391kts
07-Sep-20 15:28 35.886104 -115.020535 63 15331ft 413kts
07-Sep-20 15:29 35.943197 -114.893834 60 18568ft 432kts
07-Sep-20 15:30 35.996420 -114.759310 63 20595ft 443kts
07-Sep-20 15:31 36.050231 -114.618637 63 23570ft 461kts
07-Sep-20 15:32 36.107033 -114.472309 63 26168ft 481kts
07-Sep-20 15:33 36.165114 -114.319786 63 28302ft 500kts
07-Sep-20 15:34 36.225396 -114.162895 62 30767ft 501kts
07-Sep-20 15:35 36.285135 -114.008726 62 33228ft 494kts
07-Sep-20 15:36 36.344727 -113.856031 62 35159ft 491kts
07-Sep-20 15:37 36.403404 -113.702842 62 36723ft 490kts
07-Sep-20 15:38 36.505111 -113.597511 18 36850ft 499kts
07-Sep-20 15:39 36.642382 -113.554438 10 36885ft 518kts
07-Sep-20 15:40 36.783875 -113.512619 11 36862ft 523kts
07-Sep-20 15:41 36.925112 -113.470108 11 36831ft 522kts
07-Sep-20 15:42 37.066011 -113.427346 11 36812ft 521kts
07-Sep-20 15:43 37.206992 -113.384471 11 36834ft 521kts
07-Sep-20 15:44 37.348030 -113.341249 11 36886ft 520kts
07-Sep-20 15:45 37.488226 -113.296801 12 36946ft 520kts
07-Sep-20 15:46 37.628438 -113.251475 12 36992ft 520kts
07-Sep-20 15:47 37.768743 -113.206136 12 37004ft 520kts
07-Sep-20 15:48 37.908713 -113.160777 12 36994ft 520kts
07-Sep-20 15:49 38.048822 -113.115113 11 36975ft 518kts
07-Sep-20 15:50 38.188339 -113.069531 12 36979ft 517kts
07-Sep-20 15:51 38.327326 -113.023781 12 36956ft 517kts
07-Sep-20 15:52 38.462619 -112.959257 20 36950ft 520kts
07-Sep-20 15:53 38.596034 -112.887550 19 36955ft 520kts
07-Sep-20 15:54 38.729873 -112.815823 20 36960ft 520kts
07-Sep-20 15:55 38.862311 -112.744527 19 36948ft 498kts
07-Sep-20 15:56 38.984754 -112.678242 19 36860ft 469kts
07-Sep-20 15:57 39.103855 -112.613920 19 35157ft 456kts
07-Sep-20 15:58 39.219002 -112.551079 20 32933ft 442kts
07-Sep-20 15:59 39.330208 -112.489822 21 30847ft 427kts
07-Sep-20 16:00 39.437166 -112.428417 21 28756ft 415kts
07-Sep-20 16:01 39.538489 -112.369969 21 27686ft 379kts
07-Sep-20 16:02 39.633331 -112.315160 20 25830ft 369kts
07-Sep-20 16:03 39.726253 -112.261616 20 24020ft 356kts
07-Sep-20 16:04 39.815772 -112.209610 19 21408ft 346kts
07-Sep-20 16:05 39.902506 -112.159003 19 18901ft 336kts
07-Sep-20 16:06 39.986420 -112.109854 19 16608ft 321kts
07-Sep-20 16:07 40.064666 -112.062717 19 15057ft 303kts
07-Sep-20 16:08 40.140508 -112.016726 19 13450ft 298kts
07-Sep-20 16:09 40.214834 -111.971540 19 11905ft 290kts
07-Sep-20 16:10 40.290022 -111.936663 359 11081ft 288kts
07-Sep-20 16:11 40.369023 -111.936781 355 11006ft 283kts
07-Sep-20 16:12 40.440561 -111.935561 351 11003ft 236kts
07-Sep-20 16:13 40.503333 -111.941773 349 9459ft 235kts
07-Sep-20 16:14 40.563417 -111.948640 349 8335ft 187kts
07-Sep-20 16:15 40.612774 -111.954324 348 7379ft 169kts
07-Sep-20 16:16 40.657856 -111.959527 348 6493ft 159kts
07-Sep-20 16:17 40.701986 -111.964632 349 5646ft 159kts
07-Sep-20 16:18 40.748020 -111.969932 351 4896ft 166kts
07-Sep-20 16:19 40.790953 -111.975162 356 4240ft 100kts
07-Sep-20 16:20 40.801703 -111.977811 263 4240ft 0kts
07-Sep-20 16:21 40.801702 -111.977818 263 4240ft 1kts
07-Sep-20 16:22 40.799901 -111.978288 176 4240ft 7kts
07-Sep-20 16:23 40.798020 -111.978110 171 4240ft 6kts
07-Sep-20 16:24 40.796354 -111.977886 176 4240ft 5kts
07-Sep-20 16:25 40.793548 -111.977560 174 4240ft 15kts
07-Sep-20 16:26 40.789650 -111.977106 175 4240ft 12kts
07-Sep-20 16:27 40.788594 -111.976999 176 4240ft 0kts

Navigation Log

Ident Type
Flight plan parsing failed, navigation log unavailable